createdAt,value
2019-03-15T00:02:05.908Z,7.34
2019-03-15T00:05:08.976Z,7.36
2019-03-15T00:08:12.202Z,7.38
2019-03-15T00:11:15.469Z,7.39
2019-03-15T00:14:18.731Z,7.37
2019-03-15T00:17:21.652Z,7.37
2019-03-15T00:20:25.769Z,7.35
2019-03-15T00:23:29.108Z,7.31
2019-03-15T00:26:32.671Z,7.37
2019-03-15T00:29:35.882Z,7.35
2019-03-15T00:32:38.828Z,7.34
2019-03-15T00:35:42.066Z,7.39
2019-03-15T00:38:44.985Z,7.33
2019-03-15T00:41:48.201Z,7.30
2019-03-15T00:44:51.147Z,7.37
2019-03-15T00:47:54.960Z,7.31
2019-03-15T00:50:59.303Z,7.27
2019-03-15T00:54:02.576Z,7.24
2019-03-15T00:57:05.514Z,7.27
2019-03-15T01:00:11.401Z,7.30
2019-03-15T01:03:14.304Z,7.23
2019-03-15T01:06:17.286Z,7.30
2019-03-15T01:09:20.855Z,7.30
2019-03-15T01:12:25.628Z,7.29
2019-03-15T01:15:28.881Z,7.24
2019-03-15T01:18:32.087Z,7.25
2019-03-15T01:21:35.370Z,7.28
2019-03-15T01:24:38.751Z,7.33
2019-03-15T01:27:41.675Z,7.29
2019-03-15T01:30:44.876Z,7.25
2019-03-15T01:33:48.760Z,7.25
2019-03-15T01:36:51.737Z,7.32
2019-03-15T01:39:55.751Z,7.25
2019-03-15T01:42:58.965Z,7.28
2019-03-15T01:46:01.869Z,7.18
2019-03-15T01:49:04.817Z,7.20
2019-03-15T01:52:07.734Z,7.23
2019-03-15T01:55:10.980Z,7.23
2019-03-15T01:58:14.236Z,7.23
2019-03-15T02:01:17.153Z,7.25
2019-03-15T02:04:20.425Z,7.29
2019-03-15T02:07:24.092Z,7.25
2019-03-15T02:10:27.360Z,7.21
2019-03-15T02:13:30.299Z,7.23
2019-03-15T02:16:33.311Z,7.24
2019-03-15T02:19:37.377Z,7.25
2019-03-15T02:22:40.939Z,7.26
2019-03-15T02:25:44.121Z,7.23
2019-03-15T02:28:47.062Z,7.23
2019-03-15T02:31:50.874Z,7.24
2019-03-15T02:34:54.769Z,7.27
2019-03-15T02:37:58.349Z,7.29
2019-03-15T02:41:01.607Z,7.24
2019-03-15T02:44:04.543Z,7.26
2019-03-15T02:47:08.081Z,7.24
2019-03-15T02:50:11.017Z,7.21
2019-03-15T02:53:14.846Z,7.18
2019-03-15T02:56:17.769Z,7.20
2019-03-15T02:59:21.656Z,7.18
2019-03-15T03:02:24.995Z,7.19
2019-03-15T03:05:27.966Z,7.19
2019-03-15T03:08:31.510Z,7.20
2019-03-15T03:11:34.745Z,7.25
2019-03-15T03:14:38.032Z,7.21
2019-03-15T03:17:41.660Z,7.20
2019-03-15T03:20:44.972Z,7.26
2019-03-15T03:23:47.929Z,7.22
2019-03-15T03:26:52.167Z,7.28
2019-03-15T03:29:55.082Z,7.20
2019-03-15T03:32:58.976Z,7.24
2019-03-15T03:36:02.663Z,7.18
2019-03-15T03:39:06.367Z,7.17
2019-03-15T03:42:10.910Z,7.20
2019-03-15T03:45:13.845Z,7.16
2019-03-15T03:48:17.252Z,7.22
2019-03-15T03:51:20.162Z,7.16
2019-03-15T03:54:23.691Z,7.20
2019-03-15T03:57:26.922Z,7.21
2019-03-15T04:00:29.863Z,7.20
2019-03-15T04:03:33.753Z,7.18
2019-03-15T04:06:36.949Z,7.19
2019-03-15T04:09:40.297Z,7.19
2019-03-15T04:12:43.629Z,7.21
2019-03-15T04:15:46.676Z,7.19
2019-03-15T04:18:49.950Z,7.19
2019-03-15T04:21:53.255Z,7.19
2019-03-15T04:24:56.791Z,7.16
2019-03-15T04:27:59.702Z,7.23
2019-03-15T04:31:02.950Z,7.26
2019-03-15T04:34:05.885Z,7.27
2019-03-15T04:37:10.083Z,7.28
2019-03-15T04:40:13.078Z,7.33
2019-03-15T04:43:16.584Z,7.35
2019-03-15T04:46:20.700Z,7.36
2019-03-15T04:49:23.987Z,7.30
2019-03-15T04:52:27.181Z,7.26
2019-03-15T04:55:30.124Z,7.33
2019-03-15T04:58:33.992Z,7.43
2019-03-15T05:01:37.282Z,7.36
2019-03-15T05:04:40.265Z,7.37
2019-03-15T05:07:43.186Z,7.35
2019-03-15T05:10:47.196Z,7.33
2019-03-15T05:13:50.801Z,7.36
2019-03-15T05:16:55.845Z,7.35
2019-03-15T05:19:59.003Z,7.40
2019-03-15T05:23:02.902Z,7.30
2019-03-15T05:26:06.171Z,7.34
2019-03-15T05:29:09.439Z,7.35
2019-03-15T05:32:12.701Z,7.33
2019-03-15T05:35:15.642Z,7.27
2019-03-15T05:38:18.561Z,7.31
2019-03-15T05:41:21.929Z,7.28
2019-03-15T05:44:25.162Z,7.33
2019-03-15T05:47:28.477Z,7.30
2019-03-15T05:50:31.714Z,7.35
2019-03-15T05:53:34.951Z,7.28
2019-03-15T05:56:37.899Z,7.35
2019-03-15T05:59:41.737Z,7.25
2019-03-15T06:02:45.049Z,7.28
2019-03-15T06:05:48.781Z,7.24
2019-03-15T06:08:52.448Z,7.24
2019-03-15T06:11:55.732Z,7.24
2019-03-15T06:14:58.667Z,7.17
2019-03-15T06:18:01.603Z,7.25
2019-03-15T06:21:05.113Z,7.17
2019-03-15T06:24:08.446Z,7.11
2019-03-15T06:27:11.364Z,7.22
2019-03-15T06:30:14.353Z,7.20
2019-03-15T06:33:17.589Z,7.18
2019-03-15T06:36:20.522Z,7.20
2019-03-15T06:39:23.802Z,7.23
2019-03-15T06:42:27.082Z,7.18
2019-03-15T06:45:31.808Z,7.27
2019-03-15T06:48:35.613Z,7.28
2019-03-15T06:51:38.933Z,7.28
2019-03-15T06:54:42.276Z,7.18
2019-03-15T06:57:45.234Z,7.16
2019-03-15T07:00:48.681Z,7.26
2019-03-15T07:03:51.928Z,7.24
2019-03-15T07:06:55.918Z,7.25
2019-03-15T07:09:59.175Z,7.15
2019-03-15T07:13:02.897Z,7.27
2019-03-15T07:16:05.956Z,7.29
2019-03-15T07:19:09.176Z,7.20
2019-03-15T07:22:13.185Z,7.26
2019-03-15T07:25:16.091Z,7.23
2019-03-15T07:28:19.039Z,7.32
2019-03-15T07:31:22.660Z,7.31
2019-03-15T07:34:27.411Z,7.37
2019-03-15T07:37:30.685Z,7.33
2019-03-15T07:40:33.606Z,7.38
2019-03-15T07:43:36.852Z,7.47
2019-03-15T07:46:40.076Z,7.40
2019-03-15T07:49:43.208Z,7.35
2019-03-15T07:52:46.212Z,7.47
2019-03-15T07:55:50.148Z,7.48
2019-03-15T07:58:53.093Z,7.39
2019-03-15T08:01:56.013Z,7.46
2019-03-15T08:04:58.971Z,7.47
2019-03-15T08:08:02.516Z,7.41
2019-03-15T08:11:05.942Z,7.48
2019-03-15T08:14:09.217Z,7.55
2019-03-15T08:17:12.524Z,7.53
2019-03-15T08:20:15.900Z,7.61
2019-03-15T08:23:18.889Z,7.71
2019-03-15T08:26:21.833Z,7.70
2019-03-15T08:29:25.586Z,7.65
2019-03-15T08:32:29.633Z,7.68
2019-03-15T08:35:33.675Z,7.59
2019-03-15T08:38:46.817Z,7.61
2019-03-15T08:41:41.785Z,7.67
2019-03-15T08:44:45.467Z,7.55
2019-03-15T08:47:48.703Z,7.65
2019-03-15T08:50:52.081Z,7.77
2019-03-15T08:53:55.717Z,7.85
2019-03-15T08:56:58.717Z,7.86
2019-03-15T09:00:02.212Z,7.89
2019-03-15T09:03:05.332Z,7.90
2019-03-15T09:06:08.555Z,8.02
2019-03-15T09:09:11.581Z,8.06
2019-03-15T09:12:14.873Z,8.06
2019-03-15T09:15:17.820Z,8.06
2019-03-15T09:18:20.786Z,8.17
2019-03-15T09:21:24.026Z,8.12
2019-03-15T09:24:27.571Z,8.20
2019-03-15T09:27:30.868Z,8.19
2019-03-15T09:30:33.793Z,8.24
2019-03-15T09:33:37.111Z,8.26
2019-03-15T09:36:50.127Z,8.35
2019-03-15T09:39:45.233Z,8.30
2019-03-15T09:42:48.513Z,8.48
2019-03-15T09:45:55.230Z,8.54
2019-03-15T09:48:59.690Z,8.43
2019-03-15T09:52:02.126Z,8.62
2019-03-15T09:55:05.468Z,8.53
2019-03-15T09:58:08.408Z,8.62
2019-03-15T10:01:11.858Z,8.65
2019-03-15T10:04:17.206Z,8.77
2019-03-15T10:07:20.692Z,8.58
2019-03-15T10:10:23.695Z,8.81
2019-03-15T10:13:26.630Z,8.65
2019-03-15T10:16:29.857Z,8.77
2019-03-15T10:19:33.139Z,8.89
2019-03-15T10:22:36.439Z,8.86
2019-03-15T10:25:46.704Z,8.99
2019-03-15T10:28:44.592Z,8.99
2019-03-15T10:31:48.270Z,9.11
2019-03-15T10:34:51.196Z,9.01
2019-03-15T10:37:54.112Z,9.14
2019-03-15T10:40:57.032Z,9.08
2019-03-15T10:44:00.298Z,9.25
2019-03-15T10:47:03.952Z,9.33
2019-03-15T10:50:07.962Z,9.55
2019-03-15T10:53:10.886Z,9.35
2019-03-15T10:56:14.229Z,9.35
2019-03-15T10:59:17.157Z,9.72
2019-03-15T11:02:20.469Z,9.55
2019-03-15T11:05:23.726Z,9.71
2019-03-15T11:08:27.017Z,9.71
2019-03-15T11:11:31.445Z,9.63
2019-03-15T11:14:34.384Z,9.71
2019-03-15T11:17:37.713Z,9.90
2019-03-15T11:20:40.653Z,9.66
2019-03-15T11:23:44.613Z,9.81
2019-03-15T11:26:47.820Z,9.85
2019-03-15T11:29:51.244Z,9.96
2019-03-15T11:32:54.165Z,9.87
2019-03-15T11:35:57.723Z,9.88
2019-03-15T11:39:01.315Z,9.96
2019-03-15T11:42:06.222Z,10.05
2019-03-15T11:45:10.288Z,10.18
2019-03-15T11:48:13.520Z,10.25
2019-03-15T11:51:16.736Z,10.18
2019-03-15T11:54:20.052Z,10.02
2019-03-15T11:57:23.627Z,10.25
2019-03-15T12:00:26.628Z,10.06
2019-03-15T12:03:29.915Z,10.23
2019-03-15T12:06:33.556Z,10.34
2019-03-15T12:09:36.763Z,10.12
2019-03-15T12:12:39.716Z,10.24
2019-03-15T12:15:42.996Z,10.44
2019-03-15T12:18:46.634Z,10.28
2019-03-15T12:21:49.684Z,10.18
2019-03-15T12:24:52.953Z,10.26
2019-03-15T12:27:55.879Z,10.33
2019-03-15T12:30:58.822Z,10.40
2019-03-15T12:34:01.843Z,10.50
2019-03-15T12:37:04.760Z,10.38
2019-03-15T12:40:08.793Z,10.37
2019-03-15T12:43:11.701Z,10.34
2019-03-15T12:46:14.678Z,10.47
2019-03-15T12:49:17.608Z,10.58
2019-03-15T12:52:20.852Z,10.45
2019-03-15T12:55:36.442Z,10.61
2019-03-15T12:58:39.657Z,10.60
2019-03-15T13:01:42.621Z,10.66
2019-03-15T13:04:45.913Z,10.59
2019-03-15T13:07:49.488Z,10.80
2019-03-15T13:10:52.784Z,10.70
2019-03-15T13:13:56.021Z,10.75
2019-03-15T13:16:59.483Z,10.81
2019-03-15T13:20:03.268Z,10.92
2019-03-15T13:23:06.284Z,10.73
2019-03-15T13:26:09.549Z,10.81
2019-03-15T13:29:12.723Z,10.71
2019-03-15T13:32:15.747Z,10.77
2019-03-15T13:35:19.134Z,10.90
2019-03-15T13:38:22.082Z,11.08
2019-03-15T13:41:25.037Z,11.19
2019-03-15T13:44:28.685Z,11.07
2019-03-15T13:47:31.616Z,11.08
2019-03-15T13:50:34.810Z,11.06
2019-03-15T13:53:38.452Z,11.07
2019-03-15T13:56:41.817Z,10.98
2019-03-15T13:59:44.750Z,11.00
2019-03-15T14:02:47.967Z,11.24
2019-03-15T14:05:51.284Z,11.08
2019-03-15T14:08:55.638Z,11.14
2019-03-15T14:11:58.562Z,11.22
2019-03-15T14:15:01.582Z,11.13
2019-03-15T14:18:04.926Z,11.21
2019-03-15T14:21:08.191Z,11.08
2019-03-15T14:24:11.420Z,11.12
2019-03-15T14:27:14.336Z,11.09
2019-03-15T14:30:17.291Z,11.09
2019-03-15T14:33:20.190Z,11.08
2019-03-15T14:36:23.208Z,11.12
2019-03-15T14:39:26.563Z,11.15
2019-03-15T14:42:29.574Z,11.11
2019-03-15T14:45:32.752Z,11.14
2019-03-15T14:48:35.960Z,11.12
2019-03-15T14:51:38.889Z,11.09
2019-03-15T14:54:42.494Z,11.03
2019-03-15T14:57:52.591Z,11.08
2019-03-15T15:00:50.698Z,11.06
2019-03-15T15:03:53.603Z,11.01
2019-03-15T15:06:57.306Z,10.93
2019-03-15T15:10:00.552Z,10.83
2019-03-15T15:13:03.459Z,10.82
2019-03-15T15:16:06.778Z,10.92
2019-03-15T15:19:10.448Z,10.90
2019-03-15T15:22:14.065Z,10.92
2019-03-15T15:25:17.471Z,10.95
2019-03-15T15:28:21.113Z,10.83
2019-03-15T15:31:24.044Z,10.91
2019-03-15T15:34:26.977Z,10.92
2019-03-15T15:37:30.226Z,10.87
2019-03-15T15:40:34.286Z,10.88
2019-03-15T15:43:37.570Z,10.89
2019-03-15T15:46:40.518Z,10.81
2019-03-15T15:49:44.033Z,10.88
2019-03-15T15:52:47.467Z,10.94
2019-03-15T15:55:51.479Z,10.91
2019-03-15T15:58:54.702Z,10.99
2019-03-15T16:01:57.940Z,10.99
2019-03-15T16:05:00.870Z,11.07
2019-03-15T16:08:03.837Z,11.03
2019-03-15T16:11:07.057Z,10.94
2019-03-15T16:14:10.387Z,10.95
2019-03-15T16:17:13.292Z,10.85
2019-03-15T16:20:16.231Z,10.83
2019-03-15T16:23:20.589Z,10.75
2019-03-15T16:26:23.823Z,10.74
2019-03-15T16:29:27.086Z,10.69
2019-03-15T16:32:30.008Z,10.79
2019-03-15T16:35:33.308Z,10.70
2019-03-15T16:38:36.563Z,10.75
2019-03-15T16:41:39.496Z,10.72
2019-03-15T16:44:43.905Z,10.69
2019-03-15T16:47:46.850Z,10.79
2019-03-15T16:50:51.858Z,10.83
2019-03-15T16:53:55.370Z,10.76
2019-03-15T16:56:58.998Z,10.77
2019-03-15T17:00:02.246Z,10.68
2019-03-15T17:03:05.943Z,10.51
2019-03-15T17:06:09.503Z,10.42
2019-03-15T17:09:12.753Z,10.40
2019-03-15T17:12:15.679Z,10.29
2019-03-15T17:15:18.695Z,10.27
2019-03-15T17:18:21.595Z,10.30
2019-03-15T17:21:24.568Z,10.30
2019-03-15T17:24:27.866Z,10.29
2019-03-15T17:27:30.936Z,10.29
2019-03-15T17:30:34.642Z,10.52
2019-03-15T17:33:37.968Z,10.42
2019-03-15T17:36:41.234Z,10.39
2019-03-15T17:39:44.624Z,10.39
2019-03-15T17:42:48.641Z,10.36
2019-03-15T17:45:52.563Z,10.34
2019-03-15T17:48:55.487Z,10.32
2019-03-15T17:51:59.806Z,10.10
2019-03-15T17:55:03.363Z,10.00
2019-03-15T17:58:06.693Z,9.95
2019-03-15T18:01:10.779Z,9.94
2019-03-15T18:04:14.485Z,9.83
2019-03-15T18:07:17.427Z,9.76
2019-03-15T18:10:20.383Z,9.73
2019-03-15T18:13:23.328Z,9.65
2019-03-15T18:16:26.845Z,9.67
2019-03-15T18:19:30.204Z,9.72
2019-03-15T18:22:33.460Z,9.62
2019-03-15T18:25:36.904Z,9.69
2019-03-15T18:28:39.949Z,9.55
2019-03-15T18:31:43.241Z,9.59
2019-03-15T18:34:46.998Z,9.69
2019-03-15T18:37:50.276Z,9.58
2019-03-15T18:40:53.931Z,9.73
2019-03-15T18:43:57.527Z,9.66
2019-03-15T18:47:00.598Z,9.51
2019-03-15T18:50:04.259Z,9.66
2019-03-15T18:53:07.186Z,9.56
2019-03-15T18:56:10.480Z,9.53
2019-03-15T18:59:13.851Z,9.62
2019-03-15T19:02:16.867Z,9.63
2019-03-15T19:05:20.853Z,9.62
2019-03-15T19:08:24.712Z,9.46
2019-03-15T19:11:28.786Z,9.53
2019-03-15T19:14:32.328Z,9.53
2019-03-15T19:17:35.641Z,9.60
2019-03-15T19:20:38.989Z,9.49
2019-03-15T19:23:42.079Z,9.44
2019-03-15T19:26:45.796Z,9.44
2019-03-15T19:29:53.491Z,9.43
2019-03-15T19:32:54.409Z,9.38
2019-03-15T19:35:57.400Z,9.44
2019-03-15T19:39:00.762Z,9.41
2019-03-15T19:42:04.501Z,9.29
2019-03-15T19:45:10.228Z,9.31
2019-03-15T19:48:13.354Z,9.42
2019-03-15T19:51:17.048Z,9.42
2019-03-15T19:54:20.083Z,9.38
2019-03-15T19:57:23.224Z,9.43
2019-03-15T20:00:26.488Z,9.26
2019-03-15T20:03:43.305Z,9.34
2019-03-15T20:06:35.743Z,9.37
2019-03-15T20:09:38.992Z,9.19
2019-03-15T20:12:42.036Z,9.32
2019-03-15T20:15:44.995Z,9.25
2019-03-15T20:18:48.339Z,9.35
2019-03-15T20:21:51.746Z,9.35
2019-03-15T20:24:54.870Z,9.30
2019-03-15T20:27:57.917Z,9.30
2019-03-15T20:31:01.017Z,9.38
2019-03-15T20:34:04.273Z,9.40
2019-03-15T20:37:07.585Z,9.22
2019-03-15T20:40:10.703Z,9.34
2019-03-15T20:43:13.682Z,9.24
2019-03-15T20:46:16.601Z,9.21
2019-03-15T20:49:19.707Z,9.34
2019-03-15T20:52:23.575Z,9.28
2019-03-15T20:55:28.859Z,9.26
2019-03-15T20:58:32.102Z,9.38
2019-03-15T21:01:35.381Z,9.32
2019-03-15T21:04:38.435Z,9.28
2019-03-15T21:07:43.558Z,9.32
2019-03-15T21:10:46.761Z,9.30
2019-03-15T21:13:49.836Z,9.39
2019-03-15T21:16:53.797Z,9.29
2019-03-15T21:19:57.486Z,9.42
2019-03-15T21:23:00.749Z,9.42
2019-03-15T21:26:04.161Z,9.44
2019-03-15T21:29:07.400Z,9.27
2019-03-15T21:32:10.754Z,9.31
2019-03-15T21:35:13.821Z,10.24
2019-03-15T21:38:16.756Z,9.55
2019-03-15T21:41:20.082Z,9.42
2019-03-15T21:44:22.996Z,9.41
2019-03-15T21:47:25.954Z,9.41
2019-03-15T21:50:29.430Z,9.41
2019-03-15T21:53:33.411Z,9.34
2019-03-15T21:56:36.379Z,9.27
2019-03-15T21:59:40.843Z,9.25
2019-03-15T22:02:44.314Z,9.19
2019-03-15T22:05:48.232Z,9.05
2019-03-15T22:08:51.867Z,9.10
2019-03-15T22:11:58.207Z,9.11
2019-03-15T22:15:01.219Z,9.16
2019-03-15T22:18:05.161Z,9.13
2019-03-15T22:21:08.854Z,9.12
2019-03-15T22:24:11.767Z,9.11
2019-03-15T22:27:15.036Z,9.18
2019-03-15T22:30:18.639Z,9.08
2019-03-15T22:33:22.533Z,9.18
2019-03-15T22:36:25.740Z,9.08
2019-03-15T22:39:29.966Z,9.16
2019-03-15T22:42:33.252Z,9.08
2019-03-15T22:45:36.188Z,9.05
2019-03-15T22:48:39.659Z,9.02
2019-03-15T22:51:42.851Z,9.13
2019-03-15T22:54:46.488Z,9.17
2019-03-15T22:57:59.333Z,9.20
2019-03-15T23:00:55.382Z,9.12
2019-03-15T23:03:58.408Z,9.23
2019-03-15T23:07:01.669Z,9.22
2019-03-15T23:10:04.903Z,9.13
2019-03-15T23:13:08.436Z,9.19
2019-03-15T23:16:11.382Z,9.26
2019-03-15T23:19:14.738Z,9.25
2019-03-15T23:22:18.043Z,9.23
2019-03-15T23:25:21.229Z,9.26
2019-03-15T23:28:24.526Z,9.25
2019-03-15T23:31:27.550Z,9.19
2019-03-15T23:34:31.130Z,9.20
2019-03-15T23:37:34.060Z,9.19
2019-03-15T23:40:36.985Z,9.13
2019-03-15T23:43:39.925Z,9.19
2019-03-15T23:46:42.855Z,9.22
2019-03-15T23:49:46.155Z,9.26
2019-03-15T23:52:49.380Z,9.12
2019-03-15T23:55:54.890Z,9.14
2019-03-15T23:58:57.459Z,9.11
